createdAt,value
2017-12-20T18:08:19.467Z,68.29
2017-12-20T18:08:48.121Z,68.03
2017-12-20T18:10:44.016Z,68.59
2017-12-20T18:12:26.867Z,68.87
2017-12-20T18:14:50.787Z,69.36
2017-12-20T18:15:19.657Z,70.21
2017-12-20T18:17:02.287Z,71.15
2017-12-20T18:17:30.450Z,71.05
2017-12-20T18:18:13.406Z,71.6
2017-12-20T18:18:41.866Z,71.99
2017-12-20T18:19:39.403Z,72.77
2017-12-20T18:21:19.574Z,73.22
2017-12-20T18:21:47.624Z,73.06
2017-12-20T18:22:15.958Z,73.45
2017-12-20T18:24:32.788Z,73.55
2017-12-20T18:25:15.606Z,73.74
2017-12-20T18:25:59.268Z,73.16
2017-12-20T18:26:43.088Z,73.06
2017-12-20T18:27:26.354Z,74
2017-12-20T18:28:23.437Z,74.97
2017-12-20T18:29:35.694Z,74.97
2017-12-20T18:30:21.853Z,75.75
2017-12-20T18:31:19.742Z,75.46
2017-12-20T18:32:47.617Z,75.36
2017-12-20T18:33:45.584Z,74.58
2017-12-20T18:34:30.542Z,75.16
2017-12-20T18:35:28.276Z,75.56
2017-12-20T18:36:10.991Z,75.56
2017-12-20T18:36:39.484Z,75.36
2017-12-20T18:37:23.396Z,75.36
2017-12-20T18:37:52.826Z,74.39
2017-12-20T18:39:34.949Z,74.23
2017-12-20T18:40:06.523Z,74.13
2017-12-20T18:40:35.300Z,74.52
2017-12-20T18:41:06.469Z,74.72
2017-12-20T18:42:03.561Z,74.62
2017-12-20T18:43:15.178Z,74.07
2017-12-20T18:43:44.272Z,73.68
2017-12-20T18:44:42.369Z,73.68
2017-12-20T18:45:30.059Z,74.43
2017-12-20T18:46:14.160Z,75.56
2017-12-20T18:46:57.139Z,76.1
2017-12-20T18:47:25.184Z,76.68
2017-12-20T18:47:53.642Z,76.78
2017-12-20T18:49:50.241Z,77.27
2017-12-20T18:50:48.144Z,78.2
2017-12-20T18:51:45.563Z,79.66
2017-12-20T18:52:14.831Z,80.11
2017-12-20T18:52:43.600Z,81.92
2017-12-20T18:53:11.358Z,82.11
2017-12-20T18:53:39.791Z,82.5
2017-12-20T18:54:38.270Z,82.6
2017-12-20T18:55:21.735Z,83.28
2017-12-20T18:56:18.945Z,85.71
2017-12-20T18:57:01.879Z,86.58
2017-12-20T18:57:32.368Z,88.92
2017-12-20T18:58:17.315Z,92.32
2017-12-20T18:59:15.045Z,99.07
2017-12-20T18:59:46.878Z,99.99
2017-12-20T19:00:29.865Z,99.99
2017-12-20T19:00:59.712Z,99.99
2017-12-20T19:01:28.498Z,99.99
2017-12-20T19:01:58.594Z,99.99
2017-12-20T19:02:27.873Z,99.99
2017-12-20T19:03:11.184Z,99.99
2017-12-20T19:03:55.055Z,99.99
2017-12-20T19:04:52.135Z,99.99
2017-12-20T19:05:20.052Z,99.99
2017-12-20T19:06:17.509Z,99.99
2017-12-20T19:06:48.645Z,99.99
2017-12-20T19:08:31.323Z,99.99
2017-12-20T19:09:14.277Z,99.99
2017-12-20T19:09:44.744Z,99.99
2017-12-20T19:10:13.394Z,99.99
2017-12-20T19:10:56.906Z,99.99
2017-12-20T19:11:25.333Z,99.99
2017-12-20T19:11:54.547Z,99.99
2017-12-20T19:12:22.975Z,99.99
2017-12-20T19:13:06.878Z,99.99
2017-12-20T19:13:35.216Z,99.99
2017-12-20T19:15:01.050Z,99.99
2017-12-20T19:15:45.026Z,99.99
2017-12-20T19:16:13.609Z,99.99
2017-12-20T19:16:42.823Z,99.99
2017-12-20T19:17:25.275Z,99.99
2017-12-20T19:17:53.531Z,99.99
2017-12-20T19:18:38.171Z,99.99
2017-12-20T19:19:06.652Z,99.99
2017-12-20T19:19:50.835Z,99.99
2017-12-20T19:21:19.985Z,99.99
2017-12-20T19:21:49.252Z,99.99
2017-12-20T19:22:31.728Z,99.99
2017-12-20T19:23:01.069Z,99.99
2017-12-20T19:24:13.834Z,99.99
2017-12-20T19:24:58.147Z,99.99
2017-12-20T19:26:12.601Z,99.99
2017-12-20T19:26:55.387Z,99.99
2017-12-20T19:27:24.796Z,99.99
2017-12-20T19:28:07.670Z,99.99
2017-12-20T19:28:37.518Z,99.99
2017-12-20T19:29:06.523Z,99.99
2017-12-20T19:29:38.110Z,99.99
2017-12-20T19:30:06.035Z,99.99
2017-12-20T19:30:34.771Z,99.99
2017-12-20T19:31:03.854Z,99.99
2017-12-20T19:31:46.307Z,99.99
2017-12-20T19:32:28.822Z,99.99
2017-12-20T19:32:58.214Z,99.99
2017-12-20T19:33:40.593Z,99.99
2017-12-20T19:34:09.366Z,99.99
2017-12-20T19:34:52.953Z,99.99
2017-12-20T19:35:36.059Z,99.99
2017-12-20T19:36:19.038Z,99.99
2017-12-20T19:37:02.793Z,99.99
2017-12-20T19:38:00.806Z,99.99
2017-12-20T19:38:58.631Z,99.99
2017-12-20T19:39:55.859Z,99.99
2017-12-20T19:40:38.836Z,99.99
2017-12-20T19:41:21.287Z,99.99
2017-12-20T19:42:49.039Z,99.99
2017-12-20T19:43:32.041Z,99.99
2017-12-20T19:45:14.057Z,99.99
2017-12-20T19:46:41.766Z,99.99
2017-12-20T19:47:10.787Z,99.99
2017-12-20T19:47:54.014Z,99.99
2017-12-20T19:48:22.172Z,99.99
2017-12-20T19:50:01.917Z,99.99
2017-12-20T19:50:30.000Z,99.99
2017-12-20T19:50:58.477Z,99.99
2017-12-20T19:52:24.425Z,99.99
2017-12-20T19:52:52.953Z,99.99
2017-12-20T19:53:21.527Z,99.99
2017-12-20T19:53:51.101Z,99.99
2017-12-20T19:55:18.686Z,99.99
2017-12-20T19:56:01.519Z,99.99
2017-12-20T19:56:44.281Z,99.99
2017-12-20T19:57:27.260Z,99.99
2017-12-20T19:57:55.893Z,99.99
2017-12-20T19:58:38.790Z,99.99
2017-12-20T19:59:37.045Z,99.99
2017-12-20T20:00:19.820Z,99.99
2017-12-20T20:00:48.079Z,99.99
2017-12-20T20:01:16.109Z,99.99
2017-12-20T20:03:13.044Z,99.99
2017-12-20T20:03:58.213Z,99.99
2017-12-20T20:04:41.564Z,99.99
2017-12-20T20:05:25.041Z,99.99
2017-12-20T20:06:07.719Z,99.99
2017-12-20T20:06:51.402Z,99.99
2017-12-20T20:07:37.779Z,99.99
2017-12-20T20:08:21.136Z,99.99
2017-12-20T20:08:49.590Z,99.99
2017-12-20T20:10:02.149Z,99.99
2017-12-20T20:10:45.191Z,99.99
2017-12-20T20:12:13.884Z,99.99
2017-12-20T20:12:58.009Z,99.99
2017-12-20T20:14:24.492Z,99.99
2017-12-20T20:15:07.892Z,99.99
2017-12-20T20:15:38.742Z,99.99
2017-12-20T20:16:50.436Z,99.99
2017-12-20T20:17:48.300Z,99.99
2017-12-20T20:18:20.353Z,99.99
2017-12-20T20:20:58.430Z,99.99
2017-12-20T20:21:56.033Z,99.99
2017-12-20T20:22:24.106Z,99.99
2017-12-20T20:22:52.474Z,99.99
2017-12-20T20:23:49.562Z,99.99
2017-12-20T20:25:01.189Z,99.99
2017-12-20T20:25:29.275Z,99.99
2017-12-20T20:25:58.782Z,99.99
2017-12-20T20:26:42.992Z,99.99
2017-12-20T20:27:26.738Z,99.99
2017-12-20T20:28:10.844Z,99.99
2017-12-20T20:28:39.422Z,99.99
2017-12-20T20:29:33.694Z,99.99
2017-12-20T20:30:01.651Z,99.99
2017-12-20T20:30:30.308Z,99.99
2017-12-20T20:31:15.082Z,99.99
2017-12-20T20:31:46.229Z,99.99
2017-12-20T20:32:29.211Z,99.99
2017-12-20T20:33:27.386Z,99.99
2017-12-20T20:34:12.325Z,99.99
2017-12-20T20:34:54.936Z,99.99
2017-12-20T20:35:38.423Z,99.99
2017-12-20T20:39:00.336Z,99.99
2017-12-20T20:39:43.426Z,99.99
2017-12-20T20:40:26.311Z,99.99
2017-12-20T20:41:23.438Z,99.99
2017-12-20T20:42:48.523Z,99.99
2017-12-20T20:43:45.628Z,99.99
2017-12-20T20:44:28.938Z,99.99
2017-12-20T20:45:40.741Z,99.99
2017-12-20T20:46:08.986Z,99.99
2017-12-20T20:46:51.528Z,99.99
2017-12-20T20:47:20.803Z,99.99
2017-12-20T20:47:49.537Z,99.99
2017-12-20T20:48:34.304Z,99.99
2017-12-20T20:49:47.619Z,99.99
2017-12-20T20:50:30.296Z,99.99
2017-12-20T20:50:59.464Z,99.99
2017-12-20T20:51:27.716Z,99.99
2017-12-20T20:51:56.181Z,99.99
2017-12-20T20:52:24.254Z,99.99
2017-12-20T20:52:52.304Z,99.99
2017-12-20T20:53:35.078Z,99.99
2017-12-20T20:55:30.138Z,99.99
2017-12-20T20:55:59.870Z,99.99
2017-12-20T20:56:42.886Z,99.99
2017-12-20T20:57:26.192Z,99.99
2017-12-20T20:57:54.542Z,99.99
2017-12-20T20:58:37.298Z,99.99
2017-12-20T20:59:06.945Z,99.99
2017-12-20T21:00:04.753Z,99.99
2017-12-20T21:00:48.021Z,99.99
2017-12-20T21:01:17.371Z,99.99
2017-12-20T21:01:45.418Z,99.99
2017-12-20T21:03:16.765Z,99.99
2017-12-20T21:03:46.441Z,99.99
2017-12-20T21:04:45.767Z,99.99
2017-12-20T21:05:14.571Z,99.99
2017-12-20T21:05:57.343Z,99.99
2017-12-20T21:06:26.900Z,99.99
2017-12-20T21:07:53.208Z,99.99
2017-12-20T21:08:22.622Z,99.99
2017-12-20T21:08:52.147Z,99.99
2017-12-20T21:09:20.828Z,99.99
2017-12-20T21:10:04.437Z,99.99
2017-12-20T21:11:45.046Z,99.99
2017-12-20T21:12:42.659Z,99.99
2017-12-20T21:13:25.149Z,99.99
2017-12-20T21:13:53.839Z,99.99
2017-12-20T21:14:22.299Z,99.99
2017-12-20T21:16:30.952Z,99.99
2017-12-20T21:18:10.967Z,99.99
2017-12-20T21:18:42.357Z,99.99
2017-12-20T21:19:10.899Z,99.99
2017-12-20T21:19:39.791Z,99.99
2017-12-20T21:20:08.597Z,99.99
2017-12-20T21:20:37.012Z,99.99
2017-12-20T21:21:34.500Z,99.99
2017-12-20T21:22:03.363Z,99.99
2017-12-20T21:22:32.220Z,99.99
2017-12-20T21:23:15.565Z,99.99
2017-12-20T21:23:58.828Z,99.99
2017-12-20T21:24:29.104Z,99.99
2017-12-20T21:25:12.055Z,99.99
2017-12-20T21:26:41.692Z,99.99
2017-12-20T21:28:21.347Z,99.99
2017-12-20T21:28:49.769Z,99.99
2017-12-20T21:29:18.197Z,99.99
2017-12-20T21:30:29.601Z,99.99
2017-12-20T21:30:58.855Z,99.99
2017-12-20T21:31:42.190Z,99.99
2017-12-20T21:32:10.900Z,99.99
2017-12-20T21:32:54.325Z,99.99
2017-12-20T21:33:37.276Z,99.99
2017-12-20T21:34:38.083Z,99.99
2017-12-20T21:35:07.389Z,99.99
2017-12-20T21:36:05.814Z,99.99
2017-12-20T21:36:33.669Z,99.99
2017-12-20T21:37:02.124Z,99.99
2017-12-20T21:37:38.897Z,99.99
2017-12-20T21:38:21.676Z,99.99
2017-12-20T21:39:04.982Z,99.99
2017-12-20T21:39:47.967Z,99.99
2017-12-20T21:40:58.974Z,99.99
2017-12-20T21:41:27.417Z,99.99
2017-12-20T21:42:11.328Z,99.99
2017-12-20T21:42:40.349Z,99.99
2017-12-20T21:43:38.746Z,99.99
2017-12-20T21:44:22.953Z,99.99
2017-12-20T21:44:51.712Z,99.99
2017-12-20T21:45:35.463Z,99.99
2017-12-20T21:46:18.910Z,99.99
2017-12-20T21:46:46.674Z,99.99
2017-12-20T21:47:15.857Z,99.99
2017-12-20T21:47:44.317Z,99.99
2017-12-20T21:48:12.347Z,99.99
2017-12-20T21:48:40.211Z,99.99
2017-12-20T21:49:09.720Z,99.99
2017-12-20T21:49:37.635Z,99.99
2017-12-20T21:50:06.150Z,99.99
2017-12-20T21:51:45.660Z,99.99
2017-12-20T21:52:29.020Z,99.99
2017-12-20T21:53:19.531Z,99.99
2017-12-20T21:53:49.142Z,99.99
2017-12-20T21:54:31.704Z,99.99
2017-12-20T21:55:00.614Z,99.99
2017-12-20T21:55:28.924Z,99.99
2017-12-20T21:55:57.879Z,99.99
2017-12-20T21:56:55.495Z,99.99
2017-12-20T21:57:23.467Z,99.99
2017-12-20T21:58:37.861Z,99.99
2017-12-20T21:59:05.882Z,99.99
2017-12-20T21:59:48.843Z,99.99
2017-12-20T22:00:19.059Z,99.99
2017-12-20T22:00:49.288Z,99.99
2017-12-20T22:01:17.731Z,99.99
2017-12-20T22:02:43.882Z,99.99
2017-12-20T22:04:38.059Z,99.99
2017-12-20T22:05:08.169Z,99.99
2017-12-20T22:05:50.891Z,99.99
2017-12-20T22:06:20.884Z,99.99
2017-12-20T22:06:50.879Z,99.99
2017-12-20T22:07:19.221Z,99.99
2017-12-20T22:07:48.450Z,99.99
2017-12-20T22:08:16.920Z,99.99
2017-12-20T22:09:00.501Z,99.99
2017-12-20T22:09:44.273Z,99.99
2017-12-20T22:10:12.989Z,99.99
2017-12-20T22:10:41.801Z,99.99
2017-12-20T22:11:10.214Z,99.99
2017-12-20T22:11:38.258Z,99.99
2017-12-20T22:12:07.486Z,99.99
2017-12-20T22:12:36.574Z,99.99
2017-12-20T22:13:06.013Z,99.99
2017-12-20T22:13:35.578Z,99.99
2017-12-20T22:14:04.445Z,99.99
2017-12-20T22:14:32.831Z,99.99
2017-12-20T22:15:03.379Z,99.99
2017-12-20T22:15:32.335Z,99.99
2017-12-20T22:16:00.374Z,99.99
2017-12-20T22:17:14.062Z,99.99
2017-12-20T22:17:42.922Z,99.99
2017-12-20T22:18:25.806Z,99.99
2017-12-20T22:19:14.248Z,99.99
2017-12-20T22:19:42.661Z,99.99
2017-12-20T22:20:10.798Z,99.99
2017-12-20T22:20:54.961Z,99.99
2017-12-20T22:21:23.625Z,99.99
2017-12-20T22:22:06.169Z,99.99
2017-12-20T22:22:34.977Z,99.99
2017-12-20T22:23:32.839Z,99.99
2017-12-20T22:24:00.857Z,99.99
2017-12-20T22:24:59.497Z,99.99
2017-12-20T22:25:27.406Z,99.99
2017-12-20T22:25:56.192Z,99.99
2017-12-20T22:26:25.658Z,99.99
2017-12-20T22:27:42.203Z,99.99
2017-12-20T22:28:10.318Z,99.99
2017-12-20T22:29:21.048Z,99.99
2017-12-20T22:29:49.491Z,99.99
2017-12-20T22:30:18.452Z,99.99
2017-12-20T22:30:48.258Z,99.99
2017-12-20T22:31:16.959Z,99.99
2017-12-20T22:31:45.284Z,99.99
2017-12-20T22:32:14.643Z,99.99
2017-12-20T22:32:43.072Z,99.99
2017-12-20T22:33:11.088Z,99.99
2017-12-20T22:33:53.955Z,99.99
2017-12-20T22:34:22.582Z,99.99
2017-12-20T22:34:51.148Z,99.99
2017-12-20T22:35:20.322Z,99.99
2017-12-20T22:36:04.599Z,99.99
2017-12-20T22:36:32.755Z,99.99
2017-12-20T22:37:01.402Z,99.99
2017-12-20T22:37:29.257Z,99.99
2017-12-20T22:37:58.834Z,99.99
2017-12-20T22:38:26.864Z,99.99
2017-12-20T22:40:07.119Z,99.99
2017-12-20T22:41:37.970Z,99.99
2017-12-20T22:42:20.840Z,99.99
2017-12-20T22:42:50.644Z,99.99
2017-12-20T22:43:19.458Z,99.99
2017-12-20T22:43:47.391Z,99.99
2017-12-20T22:44:16.989Z,99.99
2017-12-20T22:44:45.457Z,99.99
2017-12-20T22:45:14.723Z,99.99
2017-12-20T22:46:55.823Z,99.99
2017-12-20T22:47:23.738Z,99.99
2017-12-20T22:47:51.762Z,99.99
2017-12-20T22:48:32.501Z,99.99
2017-12-20T22:49:00.529Z,99.99
2017-12-20T22:51:10.846Z,99.99
2017-12-20T22:51:38.885Z,99.99
2017-12-20T22:52:07.761Z,99.99
2017-12-20T22:52:50.846Z,99.99
2017-12-20T22:53:19.300Z,99.99
2017-12-20T22:53:47.314Z,99.99
2017-12-20T22:54:15.764Z,99.99
2017-12-20T22:54:44.978Z,99.99
2017-12-20T22:55:30.501Z,99.99
2017-12-20T22:55:59.294Z,99.99
2017-12-20T22:56:28.082Z,99.99
2017-12-20T22:57:39.977Z,99.99
2017-12-20T22:58:08.099Z,99.99
2017-12-20T22:58:37.061Z,99.99
2017-12-20T22:59:05.836Z,99.99
2017-12-20T22:59:33.860Z,99.99
2017-12-20T23:00:17.615Z,99.99
2017-12-20T23:00:46.851Z,99.99
2017-12-20T23:01:16.589Z,99.99
2017-12-20T23:02:00.848Z,99.99
2017-12-20T23:02:29.272Z,99.99
2017-12-20T23:02:58.333Z,99.99
2017-12-20T23:03:57.572Z,99.99
2017-12-20T23:04:25.932Z,99.99
2017-12-20T23:05:08.466Z,99.99
2017-12-20T23:05:36.480Z,99.99
2017-12-20T23:06:04.921Z,99.99
2017-12-20T23:06:33.333Z,99.99
2017-12-20T23:07:02.223Z,99.99
2017-12-20T23:08:13.903Z,99.99
2017-12-20T23:08:41.734Z,99.99
2017-12-20T23:09:10.490Z,99.99
2017-12-20T23:09:54.343Z,99.99
2017-12-20T23:10:23.137Z,99.99
2017-12-20T23:10:51.561Z,99.99
2017-12-20T23:11:24.441Z,99.99
2017-12-20T23:11:53.199Z,99.99
2017-12-20T23:12:22.304Z,99.99
2017-12-20T23:12:51.681Z,99.99
2017-12-20T23:13:20.304Z,99.99
2017-12-20T23:13:49.733Z,99.99
2017-12-20T23:14:47.230Z,99.99
2017-12-20T23:15:16.448Z,99.99
2017-12-20T23:15:45.680Z,99.99
2017-12-20T23:16:14.294Z,99.99
2017-12-20T23:16:42.310Z,99.99
2017-12-20T23:17:42.231Z,99.99
2017-12-20T23:18:39.740Z,99.99
2017-12-20T23:19:07.769Z,99.99
2017-12-20T23:19:51.456Z,99.99
2017-12-20T23:20:20.933Z,99.99
2017-12-20T23:20:49.795Z,99.99
2017-12-20T23:21:33.154Z,99.99
2017-12-20T23:22:01.579Z,99.99
2017-12-20T23:22:30.271Z,99.99
2017-12-20T23:22:58.712Z,99.99
2017-12-20T23:23:26.648Z,99.99
2017-12-20T23:24:09.622Z,99.99
2017-12-20T23:24:38.197Z,99.99
2017-12-20T23:26:05.245Z,99.99
2017-12-20T23:29:56.975Z,99.99
2017-12-20T23:30:25.337Z,99.99
2017-12-20T23:30:53.464Z,99.99
2017-12-20T23:31:21.927Z,99.99
2017-12-20T23:32:35.724Z,99.99
2017-12-20T23:33:33.215Z,99.99
2017-12-20T23:34:59.550Z,99.99
2017-12-20T23:35:42.103Z,99.99
2017-12-20T23:36:54.613Z,99.99
2017-12-20T23:37:38.318Z,99.99
2017-12-20T23:39:33.670Z,99.99
2017-12-20T23:40:02.643Z,99.99
2017-12-20T23:40:30.446Z,99.99
2017-12-20T23:40:59.162Z,99.99
2017-12-20T23:41:28.074Z,99.99
2017-12-20T23:42:10.608Z,99.99
2017-12-20T23:42:42.462Z,99.99
2017-12-20T23:43:10.802Z,99.99
2017-12-20T23:43:39.259Z,99.99
2017-12-20T23:44:08.496Z,99.99
2017-12-20T23:44:51.469Z,99.99
2017-12-20T23:46:03.833Z,99.99
2017-12-20T23:46:32.658Z,99.99
2017-12-20T23:47:15.138Z,99.99
2017-12-20T23:47:45.945Z,99.99
2017-12-20T23:48:14.269Z,99.99
2017-12-20T23:48:42.977Z,99.99
2017-12-20T23:49:40.878Z,99.99
2017-12-20T23:50:23.840Z,99.99
2017-12-20T23:50:53.185Z,99.99
2017-12-20T23:51:22.698Z,99.99
2017-12-20T23:51:51.439Z,99.99
2017-12-20T23:52:20.348Z,99.99
2017-12-20T23:52:48.868Z,99.99
2017-12-20T23:53:17.012Z,99.99
2017-12-20T23:53:46.311Z,99.99
2017-12-20T23:54:14.698Z,99.99
2017-12-20T23:54:43.755Z,99.99
2017-12-20T23:55:26.298Z,99.99
2017-12-20T23:56:09.274Z,99.99
2017-12-20T23:56:37.306Z,99.99
2017-12-20T23:57:49.157Z,99.99
2017-12-20T23:58:17.981Z,99.99
2017-12-20T23:58:46.336Z,99.99
2017-12-20T23:59:15.368Z,99.99
2017-12-20T23:59:43.311Z,99.99
